Time;durP1;ratioP1;P1;durP2;ratioP2;P2;SDS_P1;SDS_P2;PMS_P1;PMS_P2;Temp;Humidity;BMP_temperature;BMP_pressure;BME280_temperature;BME280_humidity;BME280_pressure;Samples;Min_cycle;Max_cycle;Signal;HPM_P1;HPM_P2
2021/12/20 00:01:33;;;;;;;19.55;10.75;;;;;;;;;;5103784;28;20397;-79
2021/12/20 00:03:59;;;;;;;19.58;10.40;;;;;;;;;;5103528;28;20054;-79
2021/12/20 00:06:24;;;;;;;15.05;7.57;;;;;;;;;;5102950;28;20043;-78
2021/12/20 00:08:49;;;;;;;16.13;9.13;;;;;;;;;;5103051;28;20098;-81
2021/12/20 00:11:15;;;;;;;16.10;8.75;;;;;;;;;;5103165;28;20024;-80
2021/12/20 00:13:40;;;;;;;15.95;7.63;;;;;;;;;;5102567;28;20091;-82
2021/12/20 00:16:06;;;;;;;14.57;8.65;;;;;;;;;;5096062;28;20044;-87
2021/12/20 00:18:31;;;;;;;14.68;8.15;;;;;;;;;;5091652;28;20021;-81
2021/12/20 00:20:57;;;;;;;17.00;9.35;;;;;;;;;;5082339;28;20213;-81
2021/12/20 00:23:22;;;;;;;16.98;8.70;;;;;;;;;;5082446;28;20016;-81
2021/12/20 00:25:48;;;;;;;16.35;9.00;;;;;;;;;;5082208;28;20019;-79
2021/12/20 00:28:17;;;;;;;16.98;9.40;;;;;;;;;;5082068;28;20351;-79
2021/12/20 00:30:43;;;;;;;17.50;9.23;;;;;;;;;;5082293;28;20092;-81
2021/12/20 00:33:08;;;;;;;16.05;8.73;;;;;;;;;;5082224;28;20017;-81
2021/12/20 00:35:33;;;;;;;15.77;8.30;;;;;;;;;;5082000;28;20024;-78
2021/12/20 00:40:43;;;;;;;14.38;8.95;;;;;;;;;;5082167;28;20059;-79
2021/12/20 00:43:08;;;;;;;16.67;8.90;;;;;;;;;;5081448;28;20083;-78
2021/12/20 00:45:36;;;;;;;16.42;8.68;;;;;;;;;;5085396;28;20068;-79
2021/12/20 00:48:03;;;;;;;17.35;9.70;;;;;;;;;;5081978;28;20025;-79
2021/12/20 00:50:29;;;;;;;18.17;10.00;;;;;;;;;;5081534;28;20066;-79
2021/12/20 00:52:55;;;;;;;15.77;8.55;;;;;;;;;;5092372;28;20078;-80
2021/12/20 00:55:22;;;;;;;15.98;8.75;;;;;;;;;;5113186;28;20031;-80
2021/12/20 00:57:49;;;;;;;17.40;9.57;;;;;;;;;;5122204;28;20016;-79
2021/12/20 01:00:19;;;;;;;17.25;10.45;;;;;;;;;;5121795;28;20023;-79
2021/12/20 01:02:45;;;;;;;19.23;10.77;;;;;;;;;;5121518;28;20023;-79
2021/12/20 01:05:11;;;;;;;20.08;10.50;;;;;;;;;;5121997;28;20020;-80
2021/12/20 01:07:38;;;;;;;19.08;11.23;;;;;;;;;;5113413;28;20078;-79
2021/12/20 01:10:09;;;;;;;16.67;9.45;;;;;;;;;;5081403;28;20024;-80
2021/12/20 01:12:49;;;;;;;18.92;10.73;;;;;;;;;;5081396;28;20034;-80
2021/12/20 01:15:21;;;;;;;17.50;10.23;;;;;;;;;;5111050;28;20056;-80
2021/12/20 01:17:47;;;;;;;17.67;10.18;;;;;;;;;;5122077;28;20019;-80
2021/12/20 01:20:13;;;;;;;17.90;10.73;;;;;;;;;;5122108;28;20011;-80
2021/12/20 01:22:41;;;;;;;17.08;9.98;;;;;;;;;;5122112;28;20087;-80
2021/12/20 01:25:07;;;;;;;18.90;10.73;;;;;;;;;;5121527;28;20103;-79
2021/12/20 01:27:32;;;;;;;18.98;11.02;;;;;;;;;;5103632;28;21798;-81
2021/12/20 01:29:58;;;;;;;19.23;11.27;;;;;;;;;;5101106;28;20048;-80
2021/12/20 01:32:23;;;;;;;18.65;10.32;;;;;;;;;;5121148;28;20043;-80
2021/12/20 01:34:49;;;;;;;15.32;8.13;;;;;;;;;;5121287;28;20038;-80
2021/12/20 01:37:15;;;;;;;18.73;10.77;;;;;;;;;;5103628;28;20024;-80
2021/12/20 01:39:41;;;;;;;19.23;10.60;;;;;;;;;;5121462;28;20284;-79
2021/12/20 01:42:07;;;;;;;15.73;8.85;;;;;;;;;;5121427;28;20015;-80
2021/12/20 01:44:32;;;;;;;14.30;8.07;;;;;;;;;;5121246;28;20032;-79
2021/12/20 01:47:01;;;;;;;16.27;9.52;;;;;;;;;;5121690;28;20027;-80
2021/12/20 01:49:26;;;;;;;16.10;9.15;;;;;;;;;;5121452;28;20030;-80
2021/12/20 01:54:23;;;;;;;15.88;9.50;;;;;;;;;;5121019;28;20027;-80
2021/12/20 01:56:48;;;;;;;17.73;9.85;;;;;;;;;;5121295;28;20080;-80
2021/12/20 01:59:14;;;;;;;16.52;9.52;;;;;;;;;;5121316;28;20034;-81
2021/12/20 02:01:41;;;;;;;16.88;9.57;;;;;;;;;;5121594;28;20019;-80
2021/12/20 02:04:08;;;;;;;17.52;10.23;;;;;;;;;;5120856;28;20027;-80
2021/12/20 02:06:38;;;;;;;16.00;9.85;;;;;;;;;;5121071;28;20032;-80
2021/12/20 02:09:08;;;;;;;15.95;9.23;;;;;;;;;;5121447;28;20026;-80
2021/12/20 02:11:34;;;;;;;13.57;8.15;;;;;;;;;;5120972;28;20028;-79
2021/12/20 02:14:00;;;;;;;14.55;8.32;;;;;;;;;;5121183;28;20028;-81
2021/12/20 02:16:26;;;;;;;18.67;10.10;;;;;;;;;;5103010;28;20027;-80
2021/12/20 02:18:51;;;;;;;18.67;10.10;;;;;;;;;;5103364;28;20019;-79
2021/12/20 02:21:17;;;;;;;15.32;8.88;;;;;;;;;;5121274;28;20082;-80
2021/12/20 02:23:43;;;;;;;16.15;9.45;;;;;;;;;;5121016;28;20020;-79
2021/12/20 02:26:11;;;;;;;14.77;8.57;;;;;;;;;;5103181;28;20383;-79
2021/12/20 02:28:42;;;;;;;14.90;8.48;;;;;;;;;;5099355;28;20183;-79
2021/12/20 02:39:11;;;;;;;17.33;9.00;;;;;;;;;;5080094;28;20027;-81
2021/12/20 02:41:36;;;;;;;16.83;9.93;;;;;;;;;;5080490;28;20017;-79
2021/12/20 02:44:06;;;;;;;15.95;9.65;;;;;;;;;;5080160;28;20032;-80
2021/12/20 02:49:11;;;;;;;17.50;10.05;;;;;;;;;;5080711;28;20041;-80
2021/12/20 02:51:38;;;;;;;15.60;9.55;;;;;;;;;;5080607;28;20390;-81
2021/12/20 02:54:06;;;;;;;18.02;10.10;;;;;;;;;;5085960;28;20040;-80
2021/12/20 02:56:31;;;;;;;16.73;10.13;;;;;;;;;;5100622;28;20028;-80
2021/12/20 02:58:57;;;;;;;17.38;9.68;;;;;;;;;;5100520;28;20233;-80
2021/12/20 03:01:23;;;;;;;17.38;10.55;;;;;;;;;;5100387;28;20065;-80
2021/12/20 03:03:50;;;;;;;17.90;9.30;;;;;;;;;;5105505;28;20028;-80
2021/12/20 03:06:26;;;;;;;17.55;9.45;;;;;;;;;;5106441;28;20022;-80
2021/12/20 03:08:54;;;;;;;16.58;9.68;;;;;;;;;;5100618;28;20016;-81
2021/12/20 03:11:22;;;;;;;19.25;9.52;;;;;;;;;;5100918;28;20016;-80
2021/12/20 03:13:51;;;;;;;17.15;9.63;;;;;;;;;;5082246;28;20023;-80
2021/12/20 03:16:17;;;;;;;18.00;10.20;;;;;;;;;;5101469;28;20030;-80
2021/12/20 03:18:43;;;;;;;16.05;8.80;;;;;;;;;;5086024;28;20052;-78
2021/12/20 03:21:09;;;;;;;17.52;10.18;;;;;;;;;;5103940;28;20083;-80
2021/12/20 03:23:35;;;;;;;17.45;9.25;;;;;;;;;;5104056;28;20069;-80
2021/12/20 03:26:01;;;;;;;16.23;9.38;;;;;;;;;;5085716;28;20032;-78
2021/12/20 03:28:26;;;;;;;18.10;10.43;;;;;;;;;;5103461;28;20062;-79
2021/12/20 03:30:51;;;;;;;21.90;11.88;;;;;;;;;;5103574;28;20274;-80
2021/12/20 03:33:17;;;;;;;19.65;10.80;;;;;;;;;;5104123;28;20032;-79
2021/12/20 03:35:42;;;;;;;21.40;11.27;;;;;;;;;;5103253;28;20035;-79
2021/12/20 03:38:09;;;;;;;22.33;12.25;;;;;;;;;;5103203;28;20305;-79
2021/12/20 03:40:34;;;;;;;21.33;11.63;;;;;;;;;;5103633;28;20024;-80
2021/12/20 03:43:00;;;;;;;23.80;11.55;;;;;;;;;;5103238;28;20095;-80
2021/12/20 03:45:25;;;;;;;23.35;11.65;;;;;;;;;;5103133;28;20307;-79
2021/12/20 03:47:50;;;;;;;22.95;12.27;;;;;;;;;;5103642;28;20024;-80
2021/12/20 03:50:16;;;;;;;22.98;12.02;;;;;;;;;;5103528;28;20050;-79
2021/12/20 03:52:41;;;;;;;25.25;12.65;;;;;;;;;;5103676;28;20023;-78
2021/12/20 03:55:13;;;;;;;23.33;11.77;;;;;;;;;;5103097;28;20023;-80
2021/12/20 03:57:38;;;;;;;25.23;12.93;;;;;;;;;;5103022;28;20035;-79
2021/12/20 04:00:06;;;;;;;26.65;13.70;;;;;;;;;;5102988;28;20012;-78
2021/12/20 04:02:38;;;;;;;23.63;12.55;;;;;;;;;;5084902;28;20332;-79
2021/12/20 04:05:04;;;;;;;29.70;14.63;;;;;;;;;;5102720;28;20053;-79
2021/12/20 04:07:30;;;;;;;28.58;13.80;;;;;;;;;;5100917;28;20055;-79
2021/12/20 04:09:55;;;;;;;27.50;13.52;;;;;;;;;;5073731;28;20028;-79
2021/12/20 04:12:20;;;;;;;29.65;14.48;;;;;;;;;;5082358;28;20047;-80
2021/12/20 04:14:46;;;;;;;23.77;11.60;;;;;;;;;;5082378;28;20051;-79
2021/12/20 04:17:11;;;;;;;24.30;11.43;;;;;;;;;;5082046;28;20029;-78
2021/12/20 04:19:36;;;;;;;25.52;13.40;;;;;;;;;;5098433;28;20029;-80
2021/12/20 04:22:02;;;;;;;24.83;12.30;;;;;;;;;;5082666;28;20025;-80
2021/12/20 04:24:27;;;;;;;26.02;13.45;;;;;;;;;;5096516;28;20028;-79
2021/12/20 04:26:53;;;;;;;25.40;13.65;;;;;;;;;;5102553;28;20027;-80
2021/12/20 04:29:19;;;;;;;20.02;9.70;;;;;;;;;;5101524;28;20042;-80
2021/12/20 04:31:45;;;;;;;25.42;13.80;;;;;;;;;;5084733;28;20304;-80
2021/12/20 04:34:10;;;;;;;27.35;12.57;;;;;;;;;;5102376;28;20095;-79
2021/12/20 04:36:36;;;;;;;26.85;13.98;;;;;;;;;;5102204;28;20083;-79
2021/12/20 04:39:02;;;;;;;24.60;12.82;;;;;;;;;;5102201;28;20020;-81
2021/12/20 04:41:27;;;;;;;25.60;12.93;;;;;;;;;;5100612;28;20027;-78
2021/12/20 04:43:53;;;;;;;27.05;13.88;;;;;;;;;;5102140;28;20308;-79
2021/12/20 04:46:21;;;;;;;26.50;13.15;;;;;;;;;;5102205;28;20020;-80
2021/12/20 04:48:46;;;;;;;28.38;13.68;;;;;;;;;;5102567;28;20059;-79
2021/12/20 04:51:12;;;;;;;26.13;14.00;;;;;;;;;;5102047;28;20035;-78
2021/12/20 04:53:37;;;;;;;27.80;13.43;;;;;;;;;;5102077;28;20026;-78
2021/12/20 04:56:03;;;;;;;24.60;13.00;;;;;;;;;;5101421;28;20020;-79
2021/12/20 04:58:28;;;;;;;26.90;14.02;;;;;;;;;;5101935;28;20020;-79
2021/12/20 05:00:53;;;;;;;28.27;13.82;;;;;;;;;;5101866;28;20083;-82
2021/12/20 05:03:22;;;;;;;22.08;11.27;;;;;;;;;;5083707;28;20204;-79
2021/12/20 05:05:47;;;;;;;19.20;10.25;;;;;;;;;;5101789;28;20047;-79
2021/12/20 05:08:14;;;;;;;23.45;11.18;;;;;;;;;;5102047;28;20028;-78
2021/12/20 05:10:41;;;;;;;18.95;10.50;;;;;;;;;;5101879;28;20087;-79
2021/12/20 05:13:10;;;;;;;25.38;12.90;;;;;;;;;;5101569;28;20023;-80
2021/12/20 05:15:37;;;;;;;22.85;11.55;;;;;;;;;;5101762;28;20044;-80
2021/12/20 05:18:04;;;;;;;22.35;12.10;;;;;;;;;;5101925;28;20247;-78
2021/12/20 05:20:29;;;;;;;26.00;12.43;;;;;;;;;;5101589;28;20077;-78
2021/12/20 05:22:56;;;;;;;20.55;11.60;;;;;;;;;;5101276;28;20032;-79
2021/12/20 05:25:24;;;;;;;22.42;11.80;;;;;;;;;;5101321;28;20032;-79
2021/12/20 05:27:49;;;;;;;24.83;12.52;;;;;;;;;;5101666;28;20030;-79
2021/12/20 05:30:16;;;;;;;22.70;12.25;;;;;;;;;;5082917;28;20055;-79
2021/12/20 05:32:42;;;;;;;22.92;12.40;;;;;;;;;;5101750;28;20031;-79
2021/12/20 05:35:10;;;;;;;24.25;12.75;;;;;;;;;;5101338;28;20459;-80
2021/12/20 05:37:35;;;;;;;24.98;11.63;;;;;;;;;;5101529;28;20032;-79
2021/12/20 05:40:02;;;;;;;23.90;12.00;;;;;;;;;;5101439;28;20260;-79
2021/12/20 05:42:27;;;;;;;23.08;12.48;;;;;;;;;;5083367;28;20047;-79
2021/12/20 05:44:54;;;;;;;24.00;12.10;;;;;;;;;;5099476;28;20320;-79
2021/12/20 05:47:22;;;;;;;26.35;12.18;;;;;;;;;;5089740;28;20416;-79
2021/12/20 05:49:50;;;;;;;21.40;11.32;;;;;;;;;;5093556;28;20024;-79
2021/12/20 05:52:15;;;;;;;22.77;11.65;;;;;;;;;;5094660;28;20327;-78
2021/12/20 05:54:41;;;;;;;23.30;11.93;;;;;;;;;;5083356;28;20056;-79
2021/12/20 05:57:06;;;;;;;25.35;11.85;;;;;;;;;;5081060;28;20028;-79
2021/12/20 05:59:32;;;;;;;24.42;11.77;;;;;;;;;;5093640;28;20019;-78
2021/12/20 06:01:58;;;;;;;24.02;12.75;;;;;;;;;;5101568;28;20085;-79
2021/12/20 06:04:23;;;;;;;22.13;11.10;;;;;;;;;;5100995;28;20081;-79
2021/12/20 06:06:49;;;;;;;27.33;12.82;;;;;;;;;;5101189;28;20020;-78
2021/12/20 06:09:14;;;;;;;21.77;11.52;;;;;;;;;;5101104;28;20031;-80
2021/12/20 06:11:39;;;;;;;24.20;10.82;;;;;;;;;;5102831;28;20039;-78
2021/12/20 06:14:05;;;;;;;22.98;11.05;;;;;;;;;;5104299;28;20058;-80
2021/12/20 06:16:30;;;;;;;24.25;11.23;;;;;;;;;;5101320;28;20204;-79
2021/12/20 06:18:56;;;;;;;18.92;8.35;;;;;;;;;;5101180;28;20020;-78
2021/12/20 06:21:21;;;;;;;22.85;10.45;;;;;;;;;;5100863;28;20027;-79
2021/12/20 06:23:46;;;;;;;21.80;9.30;;;;;;;;;;5100947;28;20303;-79
2021/12/20 06:26:12;;;;;;;22.27;10.57;;;;;;;;;;5100859;28;20020;-79
2021/12/20 06:28:38;;;;;;;23.38;10.45;;;;;;;;;;5100593;28;20376;-79
2021/12/20 06:31:03;;;;;;;21.23;9.77;;;;;;;;;;5100774;28;20099;-78
2021/12/20 06:33:29;;;;;;;22.02;9.70;;;;;;;;;;5100788;28;20324;-78
2021/12/20 06:35:54;;;;;;;19.05;9.27;;;;;;;;;;5100231;28;20341;-79
2021/12/20 06:38:21;;;;;;;20.20;9.15;;;;;;;;;;5100904;28;20021;-78
2021/12/20 06:40:49;;;;;;;21.13;9.88;;;;;;;;;;5100553;28;20020;-80
2021/12/20 06:43:18;;;;;;;24.27;10.00;;;;;;;;;;5100622;28;20131;-79
2021/12/20 06:45:44;;;;;;;23.70;10.15;;;;;;;;;;5100920;28;20088;-79
2021/12/20 06:48:09;;;;;;;25.02;9.27;;;;;;;;;;5100787;28;20239;-80
2021/12/20 06:50:35;;;;;;;20.27;9.90;;;;;;;;;;5100722;28;20024;-80
2021/12/20 06:53:01;;;;;;;20.63;10.13;;;;;;;;;;5104864;28;20016;-80
2021/12/20 06:55:27;;;;;;;17.33;8.13;;;;;;;;;;5104501;28;20020;-78
2021/12/20 06:57:53;;;;;;;20.45;8.85;;;;;;;;;;5103943;28;20212;-78
2021/12/20 07:00:18;;;;;;;23.13;10.02;;;;;;;;;;5104365;28;20036;-81
2021/12/20 07:02:43;;;;;;;21.17;9.85;;;;;;;;;;5104421;28;20020;-80
2021/12/20 07:05:09;;;;;;;21.40;9.57;;;;;;;;;;5104347;28;20031;-79
2021/12/20 07:07:35;;;;;;;21.70;9.80;;;;;;;;;;5103930;28;20090;-80
2021/12/20 07:10:03;;;;;;;19.90;9.02;;;;;;;;;;5087913;28;20251;-80
2021/12/20 07:12:29;;;;;;;19.63;8.68;;;;;;;;;;5084014;28;20032;-79
2021/12/20 07:14:54;;;;;;;20.77;9.68;;;;;;;;;;5083319;28;20032;-79
2021/12/20 07:17:20;;;;;;;18.23;8.75;;;;;;;;;;5083781;28;20113;-79
2021/12/20 07:19:46;;;;;;;19.13;9.57;;;;;;;;;;5098366;28;20020;-79
2021/12/20 07:22:12;;;;;;;19.85;8.52;;;;;;;;;;5103943;28;20028;-79
2021/12/20 07:24:37;;;;;;;14.82;7.72;;;;;;;;;;5104059;28;20020;-79
2021/12/20 07:27:03;;;;;;;15.77;7.28;;;;;;;;;;5103528;28;20065;-79
2021/12/20 07:29:28;;;;;;;14.30;7.25;;;;;;;;;;5102642;28;20069;-78
2021/12/20 07:31:54;;;;;;;13.90;7.57;;;;;;;;;;5101555;28;20024;-80
2021/12/20 07:34:19;;;;;;;16.70;7.97;;;;;;;;;;5102718;28;20095;-79
2021/12/20 07:36:45;;;;;;;17.30;8.27;;;;;;;;;;5085631;28;20028;-80
2021/12/20 07:39:10;;;;;;;15.75;7.63;;;;;;;;;;5101767;28;20032;-79
2021/12/20 07:41:35;;;;;;;13.73;7.07;;;;;;;;;;5092644;28;20306;-79
2021/12/20 07:44:01;;;;;;;16.17;7.28;;;;;;;;;;5103342;28;20039;-79
2021/12/20 07:46:27;;;;;;;17.20;8.07;;;;;;;;;;5102842;28;20094;-81
2021/12/20 07:48:53;;;;;;;15.20;7.88;;;;;;;;;;5102833;28;20042;-80
2021/12/20 07:51:18;;;;;;;16.40;7.75;;;;;;;;;;5103000;28;20270;-81
2021/12/20 07:53:44;;;;;;;16.73;7.97;;;;;;;;;;5085334;28;20027;-81
2021/12/20 07:56:10;;;;;;;16.73;7.32;;;;;;;;;;5084979;28;20035;-79
2021/12/20 07:58:36;;;;;;;18.90;8.63;;;;;;;;;;5100506;28;20328;-80
2021/12/20 08:01:04;;;;;;;18.45;8.63;;;;;;;;;;5103170;28;20043;-80
2021/12/20 08:03:29;;;;;;;18.88;9.07;;;;;;;;;;5102086;28;20020;-82
2021/12/20 08:05:54;;;;;;;17.58;7.25;;;;;;;;;;5084889;28;20073;-79
2021/12/20 08:08:20;;;;;;;20.55;8.60;;;;;;;;;;5102747;28;20020;-81
2021/12/20 08:10:46;;;;;;;23.10;8.95;;;;;;;;;;5102841;28;20313;-81
2021/12/20 08:13:12;;;;;;;19.98;8.90;;;;;;;;;;5102677;28;20020;-79
2021/12/20 08:15:38;;;;;;;23.33;10.80;;;;;;;;;;5084804;28;20031;-81
2021/12/20 08:18:04;;;;;;;18.70;8.55;;;;;;;;;;5097656;28;20024;-80
2021/12/20 08:20:30;;;;;;;24.90;10.63;;;;;;;;;;5085256;28;20023;-80
2021/12/20 08:22:55;;;;;;;21.58;9.93;;;;;;;;;;5094373;28;20276;-82
2021/12/20 08:25:21;;;;;;;22.63;10.00;;;;;;;;;;5085205;28;20039;-81
2021/12/20 08:27:48;;;;;;;24.17;10.05;;;;;;;;;;5075338;28;20033;-80
2021/12/20 08:30:13;;;;;;;24.55;10.80;;;;;;;;;;5074294;28;20056;-78
2021/12/20 08:32:39;;;;;;;19.08;9.48;;;;;;;;;;5080645;28;20046;-78
2021/12/20 08:35:07;;;;;;;23.00;9.32;;;;;;;;;;5091778;28;20213;-79
2021/12/20 08:37:33;;;;;;;18.33;8.85;;;;;;;;;;5086079;28;20045;-80
2021/12/20 08:39:58;;;;;;;23.50;10.85;;;;;;;;;;5097236;28;20228;-80
2021/12/20 08:42:23;;;;;;;23.27;10.75;;;;;;;;;;5075942;28;20107;-81
2021/12/20 08:44:49;;;;;;;22.25;10.10;;;;;;;;;;5091658;28;20035;-76
2021/12/20 08:47:16;;;;;;;21.88;10.60;;;;;;;;;;5087346;28;20024;-78
2021/12/20 08:49:42;;;;;;;21.30;9.55;;;;;;;;;;5074673;28;20198;-77
2021/12/20 08:52:08;;;;;;;24.73;10.93;;;;;;;;;;5064391;28;20019;-77
2021/12/20 08:54:33;;;;;;;21.83;10.80;;;;;;;;;;5085213;28;20087;-77
2021/12/20 08:56:59;;;;;;;24.45;10.77;;;;;;;;;;5073937;28;20029;-78
2021/12/20 08:59:25;;;;;;;21.77;10.13;;;;;;;;;;5073598;28;20029;-77
2021/12/20 09:01:51;;;;;;;22.73;10.60;;;;;;;;;;5092223;28;20034;-77
2021/12/20 09:04:17;;;;;;;21.30;10.48;;;;;;;;;;5073627;28;20109;-79
2021/12/20 09:06:43;;;;;;;20.65;9.90;;;;;;;;;;5060056;28;20028;-80
2021/12/20 09:09:12;;;;;;;23.83;10.23;;;;;;;;;;5075100;28;20194;-81
2021/12/20 09:11:39;;;;;;;21.88;9.57;;;;;;;;;;5073523;28;20033;-79
2021/12/20 09:14:04;;;;;;;25.75;11.05;;;;;;;;;;5073349;28;20036;-80
2021/12/20 09:16:30;;;;;;;23.30;10.38;;;;;;;;;;5076504;28;20028;-78
2021/12/20 09:18:56;;;;;;;20.10;9.20;;;;;;;;;;5077651;28;20047;-77
2021/12/20 09:21:22;;;;;;;21.17;9.63;;;;;;;;;;5074197;28;20023;-77
2021/12/20 09:23:48;;;;;;;21.38;8.85;;;;;;;;;;5073393;28;20087;-79
2021/12/20 09:26:13;;;;;;;21.35;9.73;;;;;;;;;;5073460;28;20031;-78
2021/12/20 09:28:39;;;;;;;15.35;6.88;;;;;;;;;;5072887;28;20317;-80
2021/12/20 09:31:05;;;;;;;18.35;8.88;;;;;;;;;;5079507;28;20046;-77
2021/12/20 09:33:31;;;;;;;17.25;7.90;;;;;;;;;;5073173;28;20064;-77
2021/12/20 09:35:56;;;;;;;18.45;8.73;;;;;;;;;;5073262;28;20269;-80
2021/12/20 09:38:23;;;;;;;26.10;9.18;;;;;;;;;;5088606;28;20135;-78
2021/12/20 09:41:13;;;;;;;17.83;8.65;;;;;;;;;;5076266;28;20012;-77
2021/12/20 09:43:44;;;;;;;21.23;9.15;;;;;;;;;;5103753;28;20083;-77
2021/12/20 09:46:10;;;;;;;22.15;9.05;;;;;;;;;;5100228;28;20032;-78
2021/12/20 09:48:36;;;;;;;18.40;8.02;;;;;;;;;;5089077;28;20039;-81
2021/12/20 09:51:03;;;;;;;19.90;8.60;;;;;;;;;;5103116;28;20094;-79
2021/12/20 09:53:29;;;;;;;18.67;8.25;;;;;;;;;;5101875;28;20019;-80
2021/12/20 09:55:57;;;;;;;18.85;8.85;;;;;;;;;;5120161;28;20024;-80
2021/12/20 09:58:25;;;;;;;19.27;8.55;;;;;;;;;;5113750;28;20012;-78
2021/12/20 10:00:51;;;;;;;17.42;8.20;;;;;;;;;;5121121;28;20018;-79
2021/12/20 10:03:20;;;;;;;17.45;8.65;;;;;;;;;;5114042;28;20012;-80
2021/12/20 10:05:46;;;;;;;18.15;8.20;;;;;;;;;;5086556;28;20427;-78
2021/12/20 10:08:15;;;;;;;18.48;8.73;;;;;;;;;;5090375;28;20020;-78
2021/12/20 10:10:49;;;;;;;18.55;8.90;;;;;;;;;;5100925;28;20263;-78
2021/12/20 10:13:22;;;;;;;17.65;8.43;;;;;;;;;;5065445;28;20080;-79
2021/12/20 10:15:48;;;;;;;16.13;8.07;;;;;;;;;;5080155;28;20029;-78
2021/12/20 10:18:14;;;;;;;17.20;8.48;;;;;;;;;;5080876;28;20096;-77
2021/12/20 10:20:41;;;;;;;18.75;8.30;;;;;;;;;;5084933;28;20020;-77
2021/12/20 10:23:18;;;;;;;17.02;7.78;;;;;;;;;;5089429;28;20029;-78
2021/12/20 10:25:46;;;;;;;20.25;8.65;;;;;;;;;;5080328;28;20351;-77
2021/12/20 10:28:15;;;;;;;16.70;7.80;;;;;;;;;;5085143;28;20021;-78
2021/12/20 10:30:43;;;;;;;15.93;7.18;;;;;;;;;;5097879;28;20220;-77
2021/12/20 10:33:13;;;;;;;18.88;8.90;;;;;;;;;;5086310;28;20050;-77
2021/12/20 10:35:50;;;;;;;15.27;6.60;;;;;;;;;;5103162;28;20028;-77
2021/12/20 10:38:22;;;;;;;19.80;8.50;;;;;;;;;;5094212;28;20026;-76
2021/12/20 10:40:47;;;;;;;18.20;8.00;;;;;;;;;;5087371;28;20123;-77
2021/12/20 10:43:15;;;;;;;19.40;8.35;;;;;;;;;;5123584;28;20242;-78
2021/12/20 10:45:40;;;;;;;20.17;9.45;;;;;;;;;;5109577;28;20091;-78
2021/12/20 10:48:11;;;;;;;19.42;8.80;;;;;;;;;;5119459;28;20061;-77
2021/12/20 10:50:42;;;;;;;19.05;7.90;;;;;;;;;;5118138;28;20015;-78
2021/12/20 10:53:22;;;;;;;19.23;8.63;;;;;;;;;;5103551;28;20261;-78
2021/12/20 10:55:54;;;;;;;18.65;7.80;;;;;;;;;;5121227;28;20035;-81
2021/12/20 10:58:29;;;;;;;19.83;8.80;;;;;;;;;;5110618;28;20024;-78
2021/12/20 11:03:55;;;;;;;18.08;7.05;;;;;;;;;;5051922;28;20024;-77
2021/12/20 11:09:05;;;;;;;17.95;7.75;;;;;;;;;;5106132;28;20070;-78
2021/12/20 11:11:37;;;;;;;16.60;7.70;;;;;;;;;;5108095;28;20027;-78
2021/12/20 11:14:04;;;;;;;17.38;8.25;;;;;;;;;;5107452;28;20035;-78
2021/12/20 11:16:42;;;;;;;17.90;8.10;;;;;;;;;;5123102;28;20338;-77
2021/12/20 11:19:10;;;;;;;20.05;9.00;;;;;;;;;;5124301;28;20268;-77
2021/12/20 11:22:07;;;;;;;16.08;7.60;;;;;;;;;;5124165;28;20207;-77
2021/12/20 11:24:52;;;;;;;16.27;7.82;;;;;;;;;;5088124;28;20315;-77
2021/12/20 11:27:32;;;;;;;18.40;7.72;;;;;;;;;;5083102;28;20074;-77
2021/12/20 11:30:02;;;;;;;18.08;7.15;;;;;;;;;;5088104;28;20047;-79
2021/12/20 11:32:28;;;;;;;15.93;8.15;;;;;;;;;;5119059;28;20027;-77
2021/12/20 11:34:54;;;;;;;17.98;7.82;;;;;;;;;;5103244;28;20028;-77
2021/12/20 11:37:25;;;;;;;14.45;7.18;;;;;;;;;;5113273;28;20098;-77
2021/12/20 11:39:51;;;;;;;15.52;7.55;;;;;;;;;;5123628;28;20011;-77
2021/12/20 11:42:17;;;;;;;13.05;6.63;;;;;;;;;;5123727;28;20089;-77
2021/12/20 11:44:45;;;;;;;16.80;8.05;;;;;;;;;;5123771;28;20059;-77
2021/12/20 11:47:29;;;;;;;17.38;8.32;;;;;;;;;;5123834;28;20064;-77
2021/12/20 11:50:05;;;;;;;16.85;7.85;;;;;;;;;;5123642;28;20028;-78
2021/12/20 11:52:54;;;;;;;17.85;8.85;;;;;;;;;;5123679;28;20059;-78
2021/12/20 11:55:21;;;;;;;12.68;6.10;;;;;;;;;;5116664;28;20327;-77
2021/12/20 11:58:37;;;;;;;16.15;7.32;;;;;;;;;;5123275;28;20115;-78
2021/12/20 12:01:06;;;;;;;13.65;7.22;;;;;;;;;;5105613;28;20042;-77
2021/12/20 12:03:34;;;;;;;15.25;7.38;;;;;;;;;;5104215;28;20077;-76
2021/12/20 12:06:05;;;;;;;13.35;6.85;;;;;;;;;;5105615;28;20301;-76
2021/12/20 12:08:31;;;;;;;14.75;7.63;;;;;;;;;;5096664;28;20092;-76
2021/12/20 12:10:58;;;;;;;15.10;7.82;;;;;;;;;;5097675;28;20201;-76
2021/12/20 12:13:27;;;;;;;14.35;7.35;;;;;;;;;;5117070;28;20026;-77
2021/12/20 12:16:02;;;;;;;16.15;7.93;;;;;;;;;;5115439;28;20219;-77
2021/12/20 12:18:44;;;;;;;14.05;6.50;;;;;;;;;;5123135;28;20300;-77
2021/12/20 12:21:33;;;;;;;16.58;7.97;;;;;;;;;;5119351;28;20308;-76
2021/12/20 12:23:59;;;;;;;15.75;7.43;;;;;;;;;;5103549;28;20077;-77
2021/12/20 12:26:36;;;;;;;15.93;7.53;;;;;;;;;;5096950;28;20112;-77
2021/12/20 12:29:03;;;;;;;14.18;7.50;;;;;;;;;;5111661;28;20043;-76
2021/12/20 12:31:49;;;;;;;16.77;8.80;;;;;;;;;;5122804;28;20068;-77
2021/12/20 12:34:16;;;;;;;16.23;7.50;;;;;;;;;;5121490;28;20038;-76
2021/12/20 12:36:42;;;;;;;13.63;6.80;;;;;;;;;;5122880;28;20028;-76
2021/12/20 12:39:28;;;;;;;15.15;8.02;;;;;;;;;;5102465;28;20024;-76
2021/12/20 12:41:59;;;;;;;16.33;8.27;;;;;;;;;;5115663;28;20046;-76
2021/12/20 12:44:28;;;;;;;16.58;7.30;;;;;;;;;;5111891;28;20256;-76
2021/12/20 12:47:48;;;;;;;15.98;7.65;;;;;;;;;;5122658;28;20196;-75
2021/12/20 12:50:26;;;;;;;15.35;7.82;;;;;;;;;;5074867;28;20036;-78
2021/12/20 12:52:51;;;;;;;15.40;7.90;;;;;;;;;;5122536;28;20055;-76
2021/12/20 12:55:28;;;;;;;14.85;8.00;;;;;;;;;;5122380;28;20035;-77
2021/12/20 12:57:54;;;;;;;13.45;7.00;;;;;;;;;;5111879;28;20055;-77
2021/12/20 13:00:23;;;;;;;15.27;8.05;;;;;;;;;;5101611;28;20024;-77
2021/12/20 13:02:51;;;;;;;13.45;6.88;;;;;;;;;;5094571;28;20063;-73
2021/12/20 13:05:23;;;;;;;14.82;7.60;;;;;;;;;;5106659;28;20046;-75
2021/12/20 13:07:52;;;;;;;15.38;7.78;;;;;;;;;;5121852;28;20050;-74
2021/12/20 13:10:30;;;;;;;17.25;8.00;;;;;;;;;;5122163;28;20015;-76
2021/12/20 13:13:22;;;;;;;16.08;7.65;;;;;;;;;;5110379;28;20393;-75
2021/12/20 13:15:55;;;;;;;15.38;8.05;;;;;;;;;;5100442;28;20028;-75
2021/12/20 13:18:39;;;;;;;14.93;7.20;;;;;;;;;;5100625;28;20098;-77
2021/12/20 13:21:07;;;;;;;14.35;7.55;;;;;;;;;;5100143;28;20050;-78
2021/12/20 13:23:41;;;;;;;12.82;6.57;;;;;;;;;;5102306;28;20028;-76
2021/12/20 13:26:09;;;;;;;11.48;6.40;;;;;;;;;;5099815;28;20020;-77
2021/12/20 13:28:45;;;;;;;14.82;7.00;;;;;;;;;;5100784;28;20071;-76
2021/12/20 13:31:16;;;;;;;13.88;6.22;;;;;;;;;;5101380;28;20020;-77
2021/12/20 13:33:52;;;;;;;12.45;7.10;;;;;;;;;;5101335;28;20186;-77
2021/12/20 13:36:23;;;;;;;13.27;7.13;;;;;;;;;;5101149;28;20081;-72
2021/12/20 13:38:54;;;;;;;14.38;7.53;;;;;;;;;;5101130;28;20027;-73
2021/12/20 13:41:25;;;;;;;13.00;6.63;;;;;;;;;;5100643;28;20035;-73
2021/12/20 13:43:59;;;;;;;13.40;7.22;;;;;;;;;;5106247;28;20031;-73
2021/12/20 13:49:05;;;;;;;13.45;6.80;;;;;;;;;;5107388;28;20327;-73
2021/12/20 13:51:55;;;;;;;13.18;6.85;;;;;;;;;;5104490;28;20034;-75
2021/12/20 13:54:31;;;;;;;14.48;7.38;;;;;;;;;;5098179;28;20019;-75
2021/12/20 13:57:26;;;;;;;11.95;6.35;;;;;;;;;;5093052;28;20055;-74
2021/12/20 13:59:54;;;;;;;12.00;5.97;;;;;;;;;;5078399;28;20042;-74
2021/12/20 14:02:25;;;;;;;11.30;5.82;;;;;;;;;;5100480;28;20035;-74
2021/12/20 14:04:53;;;;;;;12.25;6.63;;;;;;;;;;5080088;28;20408;-74
2021/12/20 14:07:32;;;;;;;12.70;6.88;;;;;;;;;;5099726;28;20020;-74
2021/12/20 14:09:58;;;;;;;10.02;5.72;;;;;;;;;;5092970;28;20300;-75
2021/12/20 14:12:58;;;;;;;10.93;6.25;;;;;;;;;;5099786;28;20023;-74
2021/12/20 14:15:26;;;;;;;14.90;5.47;;;;;;;;;;5092225;28;20059;-74
2021/12/20 14:17:58;;;;;;;12.77;6.50;;;;;;;;;;5091948;28;20253;-74
2021/12/20 14:20:41;;;;;;;10.07;5.43;;;;;;;;;;5100097;28;20107;-74
2021/12/20 14:23:10;;;;;;;11.90;6.05;;;;;;;;;;5100350;28;20033;-75
2021/12/20 14:25:41;;;;;;;11.10;5.88;;;;;;;;;;5082196;28;20024;-74
2021/12/20 14:28:06;;;;;;;8.48;4.97;;;;;;;;;;5100428;28;20103;-74
2021/12/20 14:30:32;;;;;;;9.15;4.80;;;;;;;;;;5100262;28;20031;-74
2021/12/20 14:32:58;;;;;;;9.85;5.32;;;;;;;;;;5099996;28;20039;-76
2021/12/20 14:35:30;;;;;;;12.02;6.25;;;;;;;;;;5112850;28;20280;-74
2021/12/20 14:37:58;;;;;;;11.70;6.47;;;;;;;;;;5121051;28;20058;-74
2021/12/20 14:40:56;;;;;;;13.77;6.97;;;;;;;;;;5111220;28;20027;-74
2021/12/20 14:43:28;;;;;;;11.80;6.38;;;;;;;;;;5057666;28;20095;-74
2021/12/20 14:46:17;;;;;;;12.52;6.38;;;;;;;;;;5111284;28;20049;-74
2021/12/20 14:48:48;;;;;;;10.10;6.05;;;;;;;;;;5112772;28;20032;-75
2021/12/20 14:51:26;;;;;;;13.80;6.95;;;;;;;;;;5106796;28;20028;-75
2021/12/20 14:54:08;;;;;;;15.30;6.35;;;;;;;;;;5110361;28;20099;-75
2021/12/20 14:56:37;;;;;;;13.18;6.22;;;;;;;;;;5120353;28;20244;-74
2021/12/20 14:59:03;;;;;;;11.07;5.40;;;;;;;;;;5099141;28;20028;-75